Terminal Aerodrome Forecast
Issued by NWS

Home | Current Version | Previous Version | Text Only | Print | Product List | Glossary On
Versions: 1 2 3 4 5 6 7 8 9 10 11 12 13 14 15 16
000
FTUS43 KAPX 251720
TAFPLN
TAF
KPLN 251720Z 2518/2618 08011G20KT P6SM VCSH OVC015
     FM260400 09011G20KT 4SM -FZRA OVC012
     FM261200 11011G20KT 2SM -RA BR OVC006=

USA.gov is the U.S. government's official web portal to all federal, state and local government web resources and services.